Time;durP1;ratioP1;P1;durP2;ratioP2;P2;SDS_P1;SDS_P2;PMS_P1;PMS_P2;Temp;Humidity;BMP_temperature;BMP_pressure;BME280_temperature;BME280_humidity;BME280_pressure;Samples;Min_cycle;Max_cycle;Signal;HPM_P1;HPM_P2
2023/06/08 00:01:57;;;;;;;5.82;3.15;;;20.50;90.20;;;;;;5022426;28;20052;-59
2023/06/08 00:04:25;;;;;;;11.13;4.65;;;20.40;90.20;;;;;;5021369;28;20038;-59
2023/06/08 00:06:52;;;;;;;4.95;3.63;;;20.40;90.20;;;;;;5021864;28;20076;-59
2023/06/08 00:09:18;;;;;;;7.10;4.43;;;20.40;90.30;;;;;;5004948;28;20057;-60
2023/06/08 00:11:44;;;;;;;6.05;4.13;;;20.30;90.40;;;;;;5021628;28;20037;-59
2023/06/08 00:14:10;;;;;;;5.25;3.70;;;20.30;90.40;;;;;;5019249;28;20057;-59
2023/06/08 00:16:37;;;;;;;7.13;3.60;;;20.30;90.40;;;;;;5022040;28;20049;-59
2023/06/08 00:19:03;;;;;;;5.32;3.97;;;20.20;90.40;;;;;;5022472;28;20052;-58
2023/06/08 00:21:33;;;;;;;5.10;3.45;;;20.20;90.50;;;;;;5023135;28;20048;-59
2023/06/08 00:23:59;;;;;;;6.90;3.95;;;20.20;90.60;;;;;;5025702;28;20077;-59
2023/06/08 00:26:26;;;;;;;6.53;3.60;;;20.20;90.70;;;;;;5051947;28;20934;-58
2023/06/08 00:28:52;;;;;;;7.78;4.22;;;20.10;90.70;;;;;;5023257;28;20053;-58
2023/06/08 00:31:18;;;;;;;6.85;4.00;;;20.10;90.70;;;;;;5020908;28;20115;-58
2023/06/08 00:33:44;;;;;;;5.80;3.97;;;20.10;90.80;;;;;;5023167;28;20070;-59
2023/06/08 00:36:12;;;;;;;5.72;4.65;;;20.00;90.80;;;;;;5021974;28;20046;-58
2023/06/08 00:38:38;;;;;;;10.48;4.25;;;20.00;90.80;;;;;;5023584;28;20042;-60
2023/06/08 00:41:03;;;;;;;7.32;4.00;;;20.00;90.80;;;;;;5050584;28;21629;-59
2023/06/08 00:43:29;;;;;;;5.20;3.83;;;20.00;90.80;;;;;;5023984;28;20099;-59
2023/06/08 00:45:56;;;;;;;11.38;4.68;;;20.00;90.80;;;;;;5022664;28;20085;-59
2023/06/08 00:48:23;;;;;;;8.13;3.65;;;19.90;90.80;;;;;;5022137;28;20049;-58
2023/06/08 00:50:50;;;;;;;6.13;3.67;;;20.00;90.90;;;;;;5024073;28;20065;-59
2023/06/08 00:53:16;;;;;;;4.75;4.00;;;19.90;90.80;;;;;;5022882;28;20080;-59
2023/06/08 00:55:43;;;;;;;4.72;3.47;;;19.90;90.90;;;;;;5024037;28;20444;-59
2023/06/08 00:58:13;;;;;;;7.35;3.40;;;19.90;90.90;;;;;;5021137;28;20078;-59
2023/06/08 01:00:46;;;;;;;6.38;3.83;;;19.80;90.90;;;;;;5022091;28;20040;-58
2023/06/08 01:03:14;;;;;;;6.75;4.15;;;19.80;91.00;;;;;;5021459;28;20042;-58
2023/06/08 01:05:43;;;;;;;4.50;3.60;;;19.80;91.00;;;;;;5056065;28;20132;-59
2023/06/08 01:08:21;;;;;;;7.50;4.53;;;19.80;91.10;;;;;;5019654;28;20049;-61
2023/06/08 01:10:57;;;;;;;5.28;3.63;;;19.70;91.10;;;;;;5024568;28;20050;-59
2023/06/08 01:13:47;;;;;;;6.72;4.25;;;19.70;91.10;;;;;;5024344;28;20111;-58
2023/06/08 01:16:15;;;;;;;8.70;4.35;;;19.60;91.20;;;;;;5022099;28;20045;-58
2023/06/08 01:18:42;;;;;;;6.18;3.97;;;19.70;91.20;;;;;;5022774;28;20052;-59
2023/06/08 01:21:33;;;;;;;6.80;3.85;;;19.60;91.20;;;;;;5022906;28;20038;-58
2023/06/08 01:24:13;;;;;;;6.77;4.40;;;19.60;91.30;;;;;;5022768;28;20053;-59
2023/06/08 01:26:43;;;;;;;6.47;3.90;;;19.50;91.30;;;;;;5022594;28;20046;-58
2023/06/08 01:29:11;;;;;;;4.68;3.58;;;19.50;91.40;;;;;;5023071;28;20128;-59
2023/06/08 01:31:37;;;;;;;6.93;4.32;;;19.50;91.50;;;;;;5022188;28;20128;-58
2023/06/08 01:34:05;;;;;;;7.15;4.05;;;19.50;91.50;;;;;;5008575;28;20038;-59
2023/06/08 01:36:40;;;;;;;7.07;4.15;;;19.40;91.50;;;;;;5026778;28;20046;-58
2023/06/08 01:39:49;;;;;;;6.78;5.25;;;19.40;91.60;;;;;;5027731;28;20577;-58
2023/06/08 01:42:19;;;;;;;6.57;4.63;;;19.40;91.60;;;;;;4981986;28;20049;-58
2023/06/08 01:45:13;;;;;;;6.22;3.80;;;19.40;91.60;;;;;;4985377;28;20516;-58
2023/06/08 01:48:01;;;;;;;6.80;4.03;;;19.30;91.60;;;;;;5013137;28;20111;-58
2023/06/08 01:50:28;;;;;;;7.70;5.20;;;19.30;91.70;;;;;;5024498;28;20046;-58
2023/06/08 01:52:55;;;;;;;7.05;4.20;;;19.30;91.90;;;;;;5025438;28;20116;-58
2023/06/08 01:55:22;;;;;;;20.73;4.90;;;19.20;91.80;;;;;;5024331;28;20045;-58
2023/06/08 01:57:48;;;;;;;7.50;4.22;;;19.20;91.90;;;;;;5024962;28;20052;-58
2023/06/08 02:00:19;;;;;;;6.72;4.18;;;19.20;91.90;;;;;;5024241;28;20053;-58
2023/06/08 02:02:45;;;;;;;5.60;4.03;;;19.20;92.00;;;;;;5026209;28;20042;-58
2023/06/08 02:05:12;;;;;;;6.68;4.35;;;19.20;92.00;;;;;;5022922;28;20041;-58
2023/06/08 02:07:39;;;;;;;6.60;4.07;;;19.20;92.10;;;;;;5023887;28;20084;-58
2023/06/08 02:10:06;;;;;;;8.65;4.68;;;19.10;92.10;;;;;;5023795;28;20417;-58
2023/06/08 02:12:33;;;;;;;5.93;4.07;;;19.10;92.10;;;;;;5022772;28;20445;-58
2023/06/08 02:14:59;;;;;;;7.28;4.75;;;19.10;92.20;;;;;;5023410;28;20034;-60
2023/06/08 02:17:27;;;;;;;6.80;4.10;;;19.10;92.20;;;;;;5024128;28;20052;-58
2023/06/08 02:19:56;;;;;;;8.27;4.78;;;19.10;92.20;;;;;;5021815;28;20049;-59
2023/06/08 02:22:22;;;;;;;8.60;4.15;;;19.10;92.30;;;;;;5039040;28;20065;-58
2023/06/08 02:24:49;;;;;;;6.78;4.68;;;19.00;92.30;;;;;;5025522;28;20492;-58
2023/06/08 02:27:15;;;;;;;6.65;4.20;;;19.00;92.40;;;;;;5025398;28;20646;-58
2023/06/08 02:29:41;;;;;;;6.55;4.53;;;18.90;92.50;;;;;;5024613;28;20081;-59
2023/06/08 02:32:08;;;;;;;7.03;4.43;;;18.90;92.60;;;;;;5023598;28;20092;-58
2023/06/08 02:34:36;;;;;;;7.80;4.53;;;18.90;92.60;;;;;;5041177;28;20131;-58
2023/06/08 02:37:02;;;;;;;7.72;5.28;;;18.90;92.60;;;;;;5024381;28;20050;-58
2023/06/08 02:39:28;;;;;;;6.43;4.20;;;18.90;92.60;;;;;;5023991;28;20041;-58
2023/06/08 02:41:53;;;;;;;8.07;5.07;;;18.90;92.70;;;;;;5026038;28;20096;-58
2023/06/08 02:44:19;;;;;;;9.60;4.28;;;18.90;92.70;;;;;;5054683;28;20473;-58
2023/06/08 02:46:45;;;;;;;5.78;4.20;;;18.80;92.80;;;;;;5024031;28;20130;-58
2023/06/08 02:49:11;;;;;;;6.32;4.40;;;18.80;92.80;;;;;;5057390;28;20052;-58
2023/06/08 02:51:36;;;;;;;9.13;4.80;;;18.80;92.90;;;;;;5025076;28;20075;-58
2023/06/08 02:54:03;;;;;;;7.93;4.63;;;18.80;92.90;;;;;;5022406;28;20042;-58
2023/06/08 02:56:29;;;;;;;9.73;5.20;;;18.80;93.00;;;;;;5025615;28;20792;-59
2023/06/08 02:58:54;;;;;;;6.18;4.75;;;18.80;93.00;;;;;;5024108;28;20484;-58
2023/06/08 03:01:21;;;;;;;6.72;4.68;;;18.80;93.00;;;;;;5020824;28;21221;-58
2023/06/08 03:03:48;;;;;;;6.15;4.50;;;18.70;93.10;;;;;;5024359;28;20046;-58
2023/06/08 03:06:17;;;;;;;7.60;4.40;;;18.70;93.20;;;;;;5023234;28;20080;-58
2023/06/08 03:08:58;;;;;;;6.95;4.85;;;18.70;93.20;;;;;;5025169;28;20686;-58
2023/06/08 03:11:24;;;;;;;10.43;4.32;;;18.70;93.20;;;;;;5023724;28;20038;-58
2023/06/08 03:13:50;;;;;;;7.07;5.05;;;18.60;93.20;;;;;;5022659;28;20042;-58
2023/06/08 03:16:16;;;;;;;8.05;4.43;;;18.60;93.20;;;;;;5023234;28;20049;-58
2023/06/08 03:18:44;;;;;;;8.70;4.22;;;18.60;93.20;;;;;;5021122;28;20140;-58
2023/06/08 03:21:12;;;;;;;7.45;4.80;;;18.60;93.30;;;;;;5024873;28;20061;-58
2023/06/08 03:23:38;;;;;;;5.97;4.20;;;18.50;93.50;;;;;;5024670;28;20162;-58
2023/06/08 03:26:04;;;;;;;6.72;5.07;;;18.50;93.30;;;;;;5021918;28;20046;-58
2023/06/08 03:28:30;;;;;;;9.82;5.28;;;18.50;93.30;;;;;;5025426;28;20033;-58
2023/06/08 03:30:56;;;;;;;12.10;5.70;;;18.40;93.30;;;;;;5024121;28;20046;-59
2023/06/08 03:33:22;;;;;;;10.02;4.40;;;18.40;93.40;;;;;;5055495;28;20041;-58
2023/06/08 03:35:48;;;;;;;7.75;4.32;;;18.30;93.40;;;;;;5021133;28;20053;-58
2023/06/08 03:38:14;;;;;;;11.32;5.85;;;18.40;93.50;;;;;;5025828;28;20793;-58
2023/06/08 03:40:40;;;;;;;10.10;4.60;;;18.30;93.60;;;;;;5006248;28;20470;-59
2023/06/08 03:43:05;;;;;;;8.43;5.05;;;18.30;93.50;;;;;;5022996;28;20053;-58
2023/06/08 03:45:31;;;;;;;7.30;4.82;;;18.20;93.60;;;;;;5023713;28;20050;-58
2023/06/08 03:47:57;;;;;;;7.75;4.68;;;18.20;93.70;;;;;;5024287;28;20070;-57
2023/06/08 03:50:23;;;;;;;7.05;4.70;;;18.10;93.70;;;;;;5024703;28;20050;-58
2023/06/08 03:52:49;;;;;;;8.35;4.55;;;18.10;93.80;;;;;;5026812;28;20042;-58
2023/06/08 03:55:16;;;;;;;7.25;4.60;;;18.10;93.80;;;;;;5022650;28;20049;-58
2023/06/08 03:57:43;;;;;;;8.38;5.90;;;18.10;93.90;;;;;;5021572;28;20492;-57
2023/06/08 04:00:11;;;;;;;8.60;4.88;;;18.10;93.90;;;;;;5021442;28;20041;-58
2023/06/08 04:02:38;;;;;;;13.85;6.55;;;;;;;;;;5024835;28;20507;-58
2023/06/08 04:05:06;;;;;;;10.00;5.00;;;18.00;93.70;;;;;;5024616;28;20037;-57
2023/06/08 04:07:34;;;;;;;7.40;5.03;;;18.00;94.00;;;;;;5023262;28;20050;-58
2023/06/08 04:10:01;;;;;;;8.18;6.10;;;17.90;94.10;;;;;;5024317;28;20073;-58
2023/06/08 04:12:27;;;;;;;10.85;5.70;;;17.90;94.20;;;;;;5021624;28;20045;-58
2023/06/08 04:14:53;;;;;;;10.68;5.20;;;17.90;94.20;;;;;;5025462;28;20453;-58
2023/06/08 04:17:18;;;;;;;7.85;4.95;;;17.90;94.20;;;;;;5019906;28;20045;-59
2023/06/08 04:19:44;;;;;;;9.15;5.88;;;17.90;94.30;;;;;;5025176;28;20581;-58
2023/06/08 04:22:10;;;;;;;9.43;5.15;;;17.80;94.30;;;;;;5023088;28;20048;-58
2023/06/08 04:24:38;;;;;;;10.48;6.15;;;17.90;94.30;;;;;;5038555;28;20049;-58
2023/06/08 04:27:06;;;;;;;10.15;5.60;;;17.90;94.40;;;;;;5023241;28;20048;-57
2023/06/08 04:29:32;;;;;;;7.43;5.45;;;17.80;94.40;;;;;;5022238;28;20140;-58
2023/06/08 04:31:58;;;;;;;9.23;5.95;;;17.80;94.50;;;;;;5023112;28;20042;-58
2023/06/08 04:34:24;;;;;;;10.88;5.47;;;17.80;94.60;;;;;;5022232;28;20038;-58
2023/06/08 04:36:50;;;;;;;7.93;5.47;;;17.90;94.90;;;;;;5054889;28;20046;-58
2023/06/08 04:39:16;;;;;;;12.10;6.50;;;17.90;94.60;;;;;;5021630;28;20645;-61
2023/06/08 04:41:44;;;;;;;9.82;5.55;;;17.80;94.60;;;;;;5020025;28;20045;-58
2023/06/08 04:44:13;;;;;;;9.23;5.68;;;17.80;94.90;;;;;;5017940;28;20050;-58
2023/06/08 04:46:41;;;;;;;11.50;7.93;;;17.80;94.80;;;;;;5014637;28;20425;-58
2023/06/08 04:49:08;;;;;;;13.30;6.57;;;17.80;94.80;;;;;;5021888;28;20050;-57
2023/06/08 04:51:39;;;;;;;9.45;5.63;;;17.90;94.80;;;;;;5022952;28;20065;-58
2023/06/08 04:54:13;;;;;;;18.60;7.00;;;17.90;94.90;;;;;;5019106;28;20418;-58
2023/06/08 04:56:41;;;;;;;9.77;6.45;;;17.90;94.90;;;;;;5017841;28;20046;-58
2023/06/08 04:59:10;;;;;;;10.10;5.18;;;17.80;95.00;;;;;;5023328;28;20169;-57
2023/06/08 05:01:36;;;;;;;15.63;7.88;;;17.80;95.00;;;;;;5020285;28;20948;-58
2023/06/08 05:04:07;;;;;;;17.95;6.80;;;17.80;95.20;;;;;;5023492;28;20820;-57
2023/06/08 05:06:33;;;;;;;13.18;6.50;;;17.80;95.20;;;;;;5021544;28;20128;-58
2023/06/08 05:08:58;;;;;;;9.43;5.63;;;17.80;95.30;;;;;;5025731;28;20034;-59
2023/06/08 05:11:24;;;;;;;8.32;5.32;;;17.80;95.30;;;;;;5022455;28;20037;-57
2023/06/08 05:13:50;;;;;;;10.52;5.70;;;17.80;95.40;;;;;;5026037;28;20197;-58
2023/06/08 05:16:16;;;;;;;12.23;7.03;;;17.80;95.60;;;;;;5024877;28;20115;-58
2023/06/08 05:18:41;;;;;;;9.40;6.28;;;17.70;95.60;;;;;;5026274;28;20046;-57
2023/06/08 05:21:07;;;;;;;12.32;6.80;;;17.70;95.80;;;;;;5020097;28;20093;-57
2023/06/08 05:23:33;;;;;;;11.45;7.63;;;17.70;95.90;;;;;;5028774;28;20509;-58
2023/06/08 05:25:58;;;;;;;14.48;6.97;;;17.70;96.00;;;;;;5024902;28;20049;-57
2023/06/08 05:28:24;;;;;;;18.58;7.45;;;17.70;96.00;;;;;;5027242;28;20038;-58
2023/06/08 05:30:50;;;;;;;14.95;7.55;;;17.70;96.10;;;;;;5022511;28;20409;-58
2023/06/08 05:33:16;;;;;;;10.02;6.68;;;17.80;96.10;;;;;;5025285;28;20050;-58
2023/06/08 05:35:41;;;;;;;8.45;5.45;;;17.90;96.10;;;;;;5024964;28;20147;-57
2023/06/08 05:38:07;;;;;;;11.52;7.18;;;17.80;96.20;;;;;;5027047;28;20511;-58
2023/06/08 05:40:34;;;;;;;14.15;6.80;;;17.90;96.30;;;;;;5025283;28;20613;-58
2023/06/08 05:43:00;;;;;;;16.35;6.97;;;17.90;96.30;;;;;;5025742;28;20601;-58
2023/06/08 05:45:26;;;;;;;8.68;7.13;;;17.90;96.30;;;;;;5021860;28;20104;-57
2023/06/08 05:47:51;;;;;;;9.52;7.32;;;17.90;96.50;;;;;;5026685;28;20056;-58
2023/06/08 05:50:18;;;;;;;9.27;6.47;;;17.90;96.50;;;;;;5027107;28;20105;-57
2023/06/08 05:52:44;;;;;;;9.75;7.32;;;17.90;96.60;;;;;;5019376;28;20050;-57
2023/06/08 05:55:10;;;;;;;11.43;7.28;;;17.90;96.60;;;;;;5023071;28;20046;-58
2023/06/08 05:57:36;;;;;;;11.98;7.60;;;17.90;96.70;;;;;;5026402;28;20053;-57
2023/06/08 06:00:05;;;;;;;11.70;6.72;;;17.90;96.80;;;;;;5026784;28;20042;-58
2023/06/08 06:02:31;;;;;;;12.60;6.95;;;17.90;96.90;;;;;;5026512;28;20137;-58
2023/06/08 06:04:57;;;;;;;15.80;8.13;;;17.90;97.00;;;;;;5023137;28;20048;-58
2023/06/08 06:07:23;;;;;;;10.43;7.82;;;18.00;97.00;;;;;;5027309;28;20649;-59
2023/06/08 06:09:48;;;;;;;11.13;6.18;;;18.00;97.40;;;;;;5024209;28;20088;-57
2023/06/08 06:12:14;;;;;;;9.68;7.25;;;18.00;97.20;;;;;;5026089;28;20193;-57
2023/06/08 06:14:41;;;;;;;9.68;7.18;;;18.00;97.40;;;;;;5025589;28;20070;-58
2023/06/08 06:17:07;;;;;;;14.73;7.47;;;18.00;97.40;;;;;;5025006;28;20041;-58
2023/06/08 06:19:36;;;;;;;9.50;7.72;;;18.00;97.60;;;;;;5021323;28;20055;-58
2023/06/08 06:22:04;;;;;;;11.88;8.07;;;18.00;97.60;;;;;;5026348;28;20058;-58
2023/06/08 06:24:30;;;;;;;7.55;5.03;;;18.10;97.70;;;;;;5024098;28;20377;-57
2023/06/08 06:26:55;;;;;;;12.98;7.55;;;18.00;97.70;;;;;;5028012;28;20072;-58
2023/06/08 06:29:21;;;;;;;15.52;8.65;;;18.10;97.90;;;;;;5023100;28;20135;-58
2023/06/08 06:31:47;;;;;;;11.30;7.90;;;18.10;97.90;;;;;;5022703;28;20173;-58
2023/06/08 06:34:13;;;;;;;12.07;8.75;;;18.20;98.00;;;;;;5020742;28;20558;-58
2023/06/08 06:36:39;;;;;;;13.60;8.10;;;18.20;98.00;;;;;;5023291;28;20482;-58
2023/06/08 06:39:05;;;;;;;12.55;8.35;;;18.20;98.10;;;;;;5026216;28;20119;-58
2023/06/08 06:41:30;;;;;;;15.77;8.65;;;18.20;98.10;;;;;;5025314;28;20101;-58
2023/06/08 06:43:56;;;;;;;18.30;9.27;;;18.30;98.20;;;;;;5025935;28;20076;-58
2023/06/08 06:46:22;;;;;;;11.18;8.68;;;18.30;98.30;;;;;;5016260;28;20085;-58
2023/06/08 06:48:48;;;;;;;12.13;7.88;;;18.30;98.30;;;;;;5022946;28;20050;-57
2023/06/08 06:51:13;;;;;;;11.02;8.30;;;18.30;98.40;;;;;;5021731;28;20085;-58
2023/06/08 06:53:39;;;;;;;15.93;8.00;;;18.30;98.40;;;;;;5023006;28;20038;-58
2023/06/08 06:56:05;;;;;;;14.18;8.77;;;18.40;98.50;;;;;;5025284;28;20041;-58
2023/06/08 06:58:31;;;;;;;20.15;9.82;;;18.40;98.50;;;;;;5019150;28;20049;-58
2023/06/08 07:00:57;;;;;;;17.50;9.65;;;18.40;98.60;;;;;;5024593;28;20045;-58
2023/06/08 07:03:26;;;;;;;11.90;8.45;;;18.40;98.70;;;;;;5022591;28;20050;-58
2023/06/08 07:05:53;;;;;;;14.48;8.35;;;18.40;98.90;;;;;;5022763;28;20049;-58
2023/06/08 07:08:19;;;;;;;20.55;8.60;;;18.40;98.90;;;;;;5025146;28;20491;-58
2023/06/08 07:10:45;;;;;;;17.55;9.00;;;18.40;99.00;;;;;;5024502;28;20046;-58
2023/06/08 07:13:10;;;;;;;15.63;9.32;;;18.50;99.20;;;;;;5022827;28;20038;-58
2023/06/08 07:15:38;;;;;;;14.27;8.23;;;18.60;99.40;;;;;;5022242;28;20885;-58
2023/06/08 07:18:04;;;;;;;22.33;10.77;;;18.60;99.50;;;;;;5022373;28;20038;-58
2023/06/08 07:20:30;;;;;;;24.67;9.90;;;18.60;99.60;;;;;;5025123;28;20046;-58
2023/06/08 07:22:55;;;;;;;18.45;10.60;;;18.70;99.60;;;;;;5023928;28;20046;-60
2023/06/08 07:25:21;;;;;;;14.90;8.70;;;18.70;99.70;;;;;;5025149;28;20082;-58
2023/06/08 07:27:47;;;;;;;9.82;7.90;;;18.80;99.80;;;;;;5024608;28;20467;-58
2023/06/08 07:30:13;;;;;;;15.43;8.77;;;18.80;99.90;;;;;;5023859;28;20725;-60
2023/06/08 07:32:39;;;;;;;14.50;9.90;;;18.80;99.90;;;;;;5023300;28;20061;-58
2023/06/08 07:35:05;;;;;;;18.15;9.38;;;18.90;99.90;;;;;;5021621;28;20100;-57
2023/06/08 07:37:31;;;;;;;13.43;8.98;;;18.90;99.90;;;;;;5021117;28;20049;-58
2023/06/08 07:39:56;;;;;;;17.48;9.63;;;18.90;99.90;;;;;;5023479;28;20041;-58
2023/06/08 07:42:22;;;;;;;13.50;10.13;;;19.00;99.90;;;;;;5023401;28;20539;-58
2023/06/08 07:44:49;;;;;;;13.93;8.32;;;19.00;99.90;;;;;;5008857;28;20129;-58
2023/06/08 07:47:17;;;;;;;16.65;9.52;;;19.00;99.90;;;;;;5024031;28;20868;-58
2023/06/08 07:49:43;;;;;;;34.58;12.70;;;19.10;99.90;;;;;;5023279;28;20499;-57
2023/06/08 07:52:08;;;;;;;20.27;10.13;;;19.10;99.90;;;;;;5022175;28;20046;-57
2023/06/08 07:54:35;;;;;;;22.45;11.20;;;19.20;99.90;;;;;;5023408;28;20042;-57
2023/06/08 07:57:00;;;;;;;17.13;9.80;;;19.20;99.90;;;;;;5023849;28;20053;-57
2023/06/08 07:59:26;;;;;;;14.82;8.43;;;19.20;99.90;;;;;;5024070;28;20531;-57
2023/06/08 08:01:52;;;;;;;14.20;8.55;;;19.20;99.90;;;;;;5022979;28;20124;-57
2023/06/08 08:04:18;;;;;;;12.90;8.82;;;19.30;99.90;;;;;;5022200;28;20049;-57
2023/06/08 08:06:44;;;;;;;11.90;7.20;;;19.30;99.90;;;;;;5000332;28;20437;-58
2023/06/08 08:09:09;;;;;;;17.08;8.82;;;19.40;99.90;;;;;;5018024;28;20126;-57
2023/06/08 08:11:37;;;;;;;14.13;9.05;;;19.40;99.90;;;;;;5024235;28;20065;-58
2023/06/08 08:14:09;;;;;;;14.40;8.38;;;19.40;99.90;;;;;;5019522;28;20084;-57
2023/06/08 08:16:36;;;;;;;12.32;7.95;;;19.50;99.90;;;;;;5024531;28;20173;-57
2023/06/08 08:19:02;;;;;;;12.00;7.78;;;19.50;99.90;;;;;;5022967;28;20127;-57
2023/06/08 08:21:27;;;;;;;18.38;8.73;;;19.50;99.90;;;;;;5050751;28;20037;-57
2023/06/08 08:23:53;;;;;;;11.27;7.22;;;19.60;99.90;;;;;;5023389;28;20048;-57
2023/06/08 08:26:20;;;;;;;11.40;7.43;;;19.40;99.90;;;;;;5019867;28;20137;-57
2023/06/08 08:28:46;;;;;;;12.90;8.48;;;19.60;99.90;;;;;;5021746;28;20045;-57
2023/06/08 08:31:12;;;;;;;14.98;8.23;;;19.70;99.90;;;;;;5016362;28;20046;-59
2023/06/08 08:33:38;;;;;;;11.02;8.02;;;19.70;99.90;;;;;;5012499;28;20322;-58
2023/06/08 08:36:05;;;;;;;13.70;9.43;;;19.70;99.90;;;;;;5020674;28;20560;-58
2023/06/08 08:38:31;;;;;;;11.18;8.20;;;19.80;99.90;;;;;;5014060;28;20048;-58
2023/06/08 08:41:05;;;;;;;13.23;8.43;;;19.80;99.90;;;;;;5020415;28;20582;-59
2023/06/08 08:43:58;;;;;;;11.38;7.72;;;19.90;99.90;;;;;;5011406;28;20864;-58
2023/06/08 08:46:25;;;;;;;16.70;8.15;;;19.90;99.90;;;;;;5017018;28;20054;-58
2023/06/08 08:48:53;;;;;;;15.00;9.73;;;20.00;99.90;;;;;;5019051;28;20050;-58
2023/06/08 08:51:19;;;;;;;11.10;8.13;;;20.00;99.90;;;;;;5017840;28;20046;-58
2023/06/08 08:53:48;;;;;;;12.07;7.82;;;20.00;99.90;;;;;;5041981;28;20458;-59
2023/06/08 08:56:20;;;;;;;12.88;7.53;;;20.00;99.90;;;;;;5014333;28;20053;-58
2023/06/08 08:58:54;;;;;;;11.93;7.88;;;20.00;99.90;;;;;;5014742;28;20544;-58
2023/06/08 09:01:22;;;;;;;11.95;8.15;;;20.10;99.90;;;;;;5016855;28;20054;-58
2023/06/08 09:03:48;;;;;;;10.18;6.40;;;20.10;99.90;;;;;;5020436;28;20615;-58
2023/06/08 09:06:14;;;;;;;12.27;8.02;;;20.20;99.90;;;;;;5022193;28;20037;-58
2023/06/08 09:08:40;;;;;;;12.85;8.50;;;20.20;99.90;;;;;;5022412;28;20040;-58
2023/06/08 09:11:09;;;;;;;14.63;8.98;;;20.20;99.90;;;;;;5021627;28;20100;-59
2023/06/08 09:13:36;;;;;;;17.33;8.15;;;20.30;99.90;;;;;;5050778;28;20048;-58
2023/06/08 09:16:10;;;;;;;20.10;8.02;;;20.30;99.90;;;;;;5022089;28;20042;-58
2023/06/08 09:18:36;;;;;;;12.23;7.50;;;20.40;99.90;;;;;;5022984;28;20046;-59
2023/06/08 09:21:21;;;;;;;9.48;6.95;;;20.40;99.90;;;;;;5024571;28;20041;-57
2023/06/08 09:24:04;;;;;;;14.80;8.68;;;20.50;99.90;;;;;;5023511;28;20142;-57
2023/06/08 09:26:32;;;;;;;10.88;7.82;;;20.50;99.90;;;;;;5024171;28;20045;-57
2023/06/08 09:29:05;;;;;;;18.30;7.90;;;20.50;99.90;;;;;;5021566;28;20045;-57
2023/06/08 09:31:31;;;;;;;10.80;7.72;;;20.60;99.90;;;;;;5022219;28;20057;-57
2023/06/08 09:34:10;;;;;;;10.82;7.50;;;20.60;99.90;;;;;;5022421;28;20497;-59
2023/06/08 09:36:39;;;;;;;11.90;7.10;;;20.70;99.90;;;;;;5021806;28;20092;-58
2023/06/08 09:39:07;;;;;;;13.23;6.80;;;20.60;99.90;;;;;;5021848;28;20147;-57
2023/06/08 09:41:36;;;;;;;9.27;6.78;;;20.70;99.90;;;;;;5022485;28;20046;-57
2023/06/08 09:44:16;;;;;;;10.57;7.00;;;20.70;99.90;;;;;;5020854;28;20532;-58
2023/06/08 09:46:45;;;;;;;10.15;7.97;;;20.70;99.90;;;;;;5020612;28;20049;-57
2023/06/08 09:49:15;;;;;;;8.68;6.85;;;20.70;99.90;;;;;;5019626;28;20053;-57
2023/06/08 09:51:50;;;;;;;13.57;7.40;;;20.70;99.90;;;;;;5023317;28;20042;-57
2023/06/08 09:54:17;;;;;;;9.88;7.03;;;20.80;99.90;;;;;;5022897;28;20045;-57
2023/06/08 09:56:48;;;;;;;9.73;7.18;;;20.90;99.90;;;;;;5028231;28;20133;-58
2023/06/08 09:59:17;;;;;;;12.07;7.57;;;20.90;99.90;;;;;;5026325;28;20045;-57
2023/06/08 10:01:53;;;;;;;10.68;7.15;;;20.90;99.90;;;;;;5026517;28;20578;-57
2023/06/08 10:04:26;;;;;;;10.32;7.18;;;21.00;99.90;;;;;;5022792;28;20064;-58
2023/06/08 10:06:55;;;;;;;10.95;6.38;;;21.00;99.90;;;;;;5024976;28;20038;-58
2023/06/08 10:09:27;;;;;;;10.07;5.95;;;21.00;99.90;;;;;;5024243;28;20056;-58
2023/06/08 10:11:55;;;;;;;8.55;6.43;;;21.00;99.90;;;;;;5026411;28;20074;-58
2023/06/08 10:14:26;;;;;;;6.97;5.63;;;21.10;99.90;;;;;;5024713;28;20459;-58
2023/06/08 10:16:56;;;;;;;6.75;5.72;;;21.20;99.90;;;;;;5026267;28;20081;-58
2023/06/08 10:19:23;;;;;;;12.10;6.65;;;21.20;99.90;;;;;;5008615;28;20606;-58
2023/06/08 10:21:51;;;;;;;7.55;6.75;;;21.30;99.90;;;;;;5025656;28;20045;-58
2023/06/08 10:24:21;;;;;;;11.25;6.30;;;21.40;99.90;;;;;;5025230;28;20555;-58
2023/06/08 10:26:50;;;;;;;10.52;6.30;;;21.30;99.90;;;;;;5023640;28;20542;-58
2023/06/08 10:29:16;;;;;;;20.17;7.70;;;21.40;99.90;;;;;;5024428;28;20105;-59
2023/06/08 10:31:47;;;;;;;11.00;5.20;;;21.40;99.90;;;;;;5026239;28;20133;-58
2023/06/08 10:34:15;;;;;;;9.93;6.03;;;21.40;99.90;;;;;;5021196;28;20041;-58
2023/06/08 10:36:42;;;;;;;8.90;5.50;;;21.50;99.40;;;;;;5024664;28;20538;-58
2023/06/08 10:39:14;;;;;;;10.82;6.60;;;21.60;99.00;;;;;;5055010;28;20216;-59
2023/06/08 10:41:40;;;;;;;10.43;6.03;;;21.60;98.90;;;;;;5024821;28;20520;-58
2023/06/08 10:44:23;;;;;;;10.65;6.95;;;21.60;98.60;;;;;;5025298;28;20049;-57
2023/06/08 10:46:55;;;;;;;8.13;6.38;;;21.60;98.20;;;;;;5026628;28;20061;-58
2023/06/08 10:49:21;;;;;;;9.63;6.80;;;21.70;98.00;;;;;;5024255;28;20104;-58
2023/06/08 10:51:53;;;;;;;11.05;6.20;;;21.70;97.60;;;;;;5026966;28;20440;-58
2023/06/08 10:54:23;;;;;;;9.15;5.50;;;21.70;97.70;;;;;;5025763;28;20049;-58
2023/06/08 10:56:52;;;;;;;7.85;5.13;;;21.80;97.60;;;;;;5024579;28;20042;-59
2023/06/08 10:59:37;;;;;;;7.75;5.85;;;21.80;97.30;;;;;;5020436;28;20076;-58
2023/06/08 11:02:06;;;;;;;7.55;5.57;;;21.90;97.00;;;;;;5024000;28;20045;-59
2023/06/08 11:04:33;;;;;;;8.20;5.38;;;21.90;96.80;;;;;;5024333;28;20116;-58
2023/06/08 11:07:05;;;;;;;10.45;5.85;;;21.90;96.70;;;;;;5025244;28;20046;-58
2023/06/08 11:09:36;;;;;;;11.77;5.88;;;21.90;96.40;;;;;;5020868;28;20060;-58
2023/06/08 11:12:03;;;;;;;9.32;5.88;;;22.00;96.20;;;;;;5025423;28;20444;-58
2023/06/08 11:14:29;;;;;;;14.05;5.85;;;22.00;95.80;;;;;;5023709;28;20081;-58
2023/06/08 11:16:56;;;;;;;7.97;5.68;;;22.00;95.40;;;;;;5023002;28;20188;-58
2023/06/08 11:19:28;;;;;;;9.70;6.40;;;22.10;95.20;;;;;;5020508;28;20045;-58
2023/06/08 11:21:54;;;;;;;9.65;6.30;;;22.10;95.50;;;;;;5025653;28;20052;-58
2023/06/08 11:24:30;;;;;;;9.15;6.20;;;22.10;95.30;;;;;;5022557;28;20038;-58
2023/06/08 11:27:01;;;;;;;10.57;5.78;;;22.20;95.20;;;;;;5023428;28;20511;-58
2023/06/08 11:29:27;;;;;;;7.97;5.53;;;22.20;95.00;;;;;;5022296;28;20057;-58
2023/06/08 11:31:54;;;;;;;9.07;5.38;;;22.30;94.60;;;;;;5023016;28;20046;-58
2023/06/08 11:34:22;;;;;;;5.05;4.43;;;22.30;94.20;;;;;;5022239;28;20554;-59
2023/06/08 11:36:49;;;;;;;12.77;4.57;;;22.30;93.80;;;;;;5024643;28;20101;-58
2023/06/08 11:39:15;;;;;;;6.93;5.53;;;22.30;92.80;;;;;;5020777;28;20046;-58
2023/06/08 11:41:46;;;;;;;8.00;5.60;;;22.40;92.90;;;;;;5021469;28;20049;-58
2023/06/08 11:44:15;;;;;;;10.30;5.60;;;22.50;92.70;;;;;;5023866;28;20569;-59
2023/06/08 11:46:41;;;;;;;8.43;5.55;;;22.50;92.80;;;;;;5022604;28;20140;-58
2023/06/08 11:49:10;;;;;;;8.50;6.90;;;22.50;92.60;;;;;;5023279;28;20045;-59
2023/06/08 11:51:49;;;;;;;8.35;6.03;;;22.60;92.80;;;;;;5024731;28;20045;-58
2023/06/08 11:54:15;;;;;;;8.77;7.18;;;22.70;92.80;;;;;;5024251;28;20567;-59
2023/06/08 11:56:45;;;;;;;9.18;6.07;;;22.70;92.80;;;;;;5023507;28;20049;-58
2023/06/08 11:59:15;;;;;;;8.00;6.30;;;22.70;92.90;;;;;;5023632;28;20073;-58
2023/06/08 12:02:13;;;;;;;9.43;6.05;;;22.70;92.90;;;;;;5022162;28;20653;-58
2023/06/08 12:04:40;;;;;;;10.55;5.00;;;22.80;92.70;;;;;;5016680;28;20056;-58
2023/06/08 12:07:10;;;;;;;6.20;5.30;;;22.90;92.40;;;;;;5022653;28;20045;-58
2023/06/08 12:09:37;;;;;;;10.13;5.38;;;23.00;92.20;;;;;;5022723;28;20484;-59
2023/06/08 12:12:11;;;;;;;9.82;5.45;;;23.00;92.00;;;;;;5021861;28;20045;-59
2023/06/08 12:14:42;;;;;;;7.72;5.28;;;23.10;91.90;;;;;;5022213;28;20046;-58
2023/06/08 12:17:08;;;;;;;9.18;5.07;;;23.10;91.90;;;;;;5022081;28;20053;-58
2023/06/08 12:19:34;;;;;;;8.38;5.80;;;23.20;91.60;;;;;;5023148;28;20089;-58
2023/06/08 12:22:00;;;;;;;7.53;4.82;;;23.10;91.40;;;;;;5020379;28;20056;-59
2023/06/08 12:24:26;;;;;;;9.38;5.45;;;23.20;91.00;;;;;;5022465;28;20037;-59
2023/06/08 12:26:52;;;;;;;18.15;5.68;;;23.20;90.80;;;;;;5019164;28;20046;-58
2023/06/08 12:29:18;;;;;;;7.80;4.97;;;23.20;90.60;;;;;;5018594;28;20041;-59
2023/06/08 12:31:44;;;;;;;5.65;4.30;;;23.20;90.40;;;;;;5019204;28;20503;-59
2023/06/08 12:34:10;;;;;;;11.90;5.90;;;23.20;90.40;;;;;;5022976;28;20049;-59
2023/06/08 12:36:36;;;;;;;8.35;5.30;;;23.30;90.20;;;;;;5023757;28;20133;-59
2023/06/08 12:39:02;;;;;;;10.13;5.72;;;23.30;89.90;;;;;;5018485;28;20077;-59
2023/06/08 12:41:28;;;;;;;10.45;4.97;;;23.30;89.10;;;;;;5022377;28;20132;-58
2023/06/08 12:43:54;;;;;;;7.75;5.03;;;23.40;88.40;;;;;;5022233;28;20574;-58
2023/06/08 12:46:21;;;;;;;8.82;4.95;;;23.30;88.00;;;;;;5021933;28;20627;-58
2023/06/08 12:48:49;;;;;;;12.82;5.57;;;23.40;87.60;;;;;;5023312;28;20085;-58